METAR AND TAF INFORMATION
METAR FOR LBSF
ADDS - METARS form results

(0103 UTC 11 August 2020)
Data provider http://aviationweather.gov/metar/data/
 
METAR text: LBSF 110100Z 18004KT CAVOK 16/14 Q1018 NOSIG
Conditions at: LBSF (SOFIA , BG) observed 0100 UTC 11 August 2020
Temperature: 16.0°C (61°F)
Dewpoint: 14.0°C (57°F) [RH = 88%]
Pressure (altimeter): 30.06 inches Hg (1018.0 mb)
Winds: from the S (180 degrees) at 5 MPH (4 knots; 2.1 m/s)
Visibility: 6 or more miles (10+ km)
Ceiling: ceiling and visibility are OK
Clouds: unknown
Weather: no significant weather observed at this time

METAR text: LBSF 110030Z 15004KT CAVOK 16/14 Q1018 NOSIG
Conditions at: LBSF (SOFIA , BG) observed 0030 UTC 11 August 2020
Temperature: 16.0°C (61°F)
Dewpoint: 14.0°C (57°F) [RH = 88%]
Pressure (altimeter): 30.06 inches Hg (1018.0 mb)
Winds: from the SSE (150 degrees) at 5 MPH (4 knots; 2.1 m/s)
Visibility: 6 or more miles (10+ km)
Ceiling: ceiling and visibility are OK
Clouds: unknown
Weather: no significant weather observed at this time

Forecast for: LBSF (SOFIA , BG)
Text: TAF LBSF 102300Z 1100/1124 VRB04KT CAVOK
Forecast period: 0000 to 1000 UTC 11 August 2020
Forecast type: FROM: standard forecast or significant change
Winds: variable direction winds at 5 MPH (4 knots; 2.1 m/s)
Visibility: 6 or more miles (10+ km)
Ceiling: unknown
Clouds: missing
Weather: NSW  (no significant weather)
Text: BECMG 1110/1112 30010KT
Forecast period: 1000 to 1800 UTC 11 August 2020
Forecast type: BECOMING: Conditions expected to become as follows by 1200 UTC 11 August 2020
Winds: from the WNW (300 degrees) at 12 MPH (10 knots; 5.1 m/s)
Visibility: 6 or more miles (10+ km)
Ceiling: unknown
Clouds: missing
Weather: NSW  (no significant weather)
Text: BECMG 1118/1120 VRB04KT
Forecast period: 1800 UTC 11 August 2020 to 0000 UTC 12 August 2020
Forecast type: BECOMING: Conditions expected to become as follows by 2000 UTC 11 August 2020
Winds: variable direction winds at 5 MPH (4 knots; 2.1 m/s)
Visibility: 6 or more miles (10+ km)
Ceiling: unknown
Clouds: missing
Weather: NSW  (no significant weather)

 AIRPORT MAP

 RUNWAY INFORMATION
Runway 09 Runway length 9186 ft Runway width 147 ft
Runway elevation 1739 ft Runway displaced threshold 0 ft Runway heading 95
Runway 27 Runway length 9186 ft Runway width 147 ft
Runway elevation 1742 ft Runway displaced threshold 0 ft Runway heading 275

 AIRPORT FREQUENCIES
Type APP Name APP Frequency 123.7 MHZ
Type ATIS Name ATIS Frequency 124.05 MHZ
Type TWR Name TWR Frequency 118.1 MHZ

 AIRPORT NEAR NAVIGATION AIDS
Type NDB Name Bozhourishte Frequency 312 KHZ
Type NDB Name Sofia Frequency 375 KHZ
Type NDB Name Sofia Frequency 335 KHZ
Type NDB Name Sofia Frequency 529 KHZ
Type VOR-DME Name Sofia Frequency 112600 KHZ
Type NDB Name Sofia Frequency 350 KHZ



Powered by Virtual Airlines Manager [v2.6.2]